createdAt,value
2019-01-28T00:01:06.905Z,148.13
2019-01-28T00:03:36.257Z,139.30
2019-01-28T00:06:06.046Z,143.57
2019-01-28T00:08:35.540Z,143.73
2019-01-28T00:11:04.887Z,144.87
2019-01-28T00:13:34.463Z,140.50
2019-01-28T00:16:04.104Z,140.80
2019-01-28T00:18:33.523Z,137.00
2019-01-28T00:21:03.028Z,133.50
2019-01-28T00:23:32.508Z,138.60
2019-01-28T00:26:01.860Z,131.37
2019-01-28T00:28:31.234Z,144.53
2019-01-28T00:31:00.845Z,128.07
2019-01-28T00:33:30.298Z,129.53
2019-01-28T00:35:59.687Z,123.60
2019-01-28T00:38:29.096Z,121.97
2019-01-28T00:40:58.463Z,126.83
2019-01-28T00:43:27.819Z,122.00
2019-01-28T00:45:57.222Z,124.17
2019-01-28T00:48:26.584Z,126.07
2019-01-28T00:50:55.952Z,120.30
2019-01-28T00:53:25.326Z,128.23
2019-01-28T00:55:54.737Z,128.67
2019-01-28T00:58:24.094Z,131.60
2019-01-28T01:00:53.449Z,126.53
2019-01-28T01:03:22.837Z,124.23
2019-01-28T01:05:52.385Z,130.27
2019-01-28T01:08:21.759Z,122.17
2019-01-28T01:10:51.129Z,124.60
2019-01-28T01:13:20.491Z,132.50
2019-01-28T01:15:49.826Z,126.73
2019-01-28T01:18:19.164Z,130.57
2019-01-28T01:20:48.515Z,127.30
2019-01-28T01:23:17.876Z,128.07
2019-01-28T01:25:47.232Z,129.47
2019-01-28T01:28:16.623Z,132.77
2019-01-28T01:30:45.985Z,129.33
2019-01-28T01:33:15.376Z,118.40
2019-01-28T01:35:44.762Z,118.20
2019-01-28T01:38:14.106Z,126.37
2019-01-28T01:40:43.478Z,126.87
2019-01-28T01:43:12.881Z,126.13
2019-01-28T01:45:42.216Z,125.03
2019-01-28T01:48:11.585Z,124.83
2019-01-28T01:50:40.941Z,118.43
2019-01-28T01:53:10.302Z,115.13
2019-01-28T01:55:39.647Z,112.07
2019-01-28T01:58:09.018Z,109.40
2019-01-28T02:00:38.481Z,109.57
2019-01-28T02:03:07.840Z,96.67
2019-01-28T02:05:37.227Z,96.83
2019-01-28T02:08:06.632Z,92.50
2019-01-28T02:10:35.987Z,86.70
2019-01-28T02:13:05.489Z,81.17
2019-01-28T02:15:34.877Z,81.77
2019-01-28T02:18:04.352Z,81.43
2019-01-28T02:20:33.722Z,72.23
2019-01-28T02:23:03.085Z,73.63
2019-01-28T02:25:32.436Z,74.17
2019-01-28T02:28:01.773Z,76.53
2019-01-28T02:30:31.215Z,78.43
2019-01-28T02:33:00.566Z,80.67
2019-01-28T02:35:29.918Z,79.97
2019-01-28T02:38:01.569Z,74.53
2019-01-28T02:40:30.916Z,76.73
2019-01-28T02:43:00.289Z,79.23
2019-01-28T02:45:29.652Z,88.33
2019-01-28T02:47:58.996Z,76.23
2019-01-28T02:50:28.369Z,80.10
2019-01-28T02:52:57.744Z,81.13
2019-01-28T02:55:27.147Z,78.23
2019-01-28T02:57:56.538Z,84.67
2019-01-28T03:00:25.914Z,89.60
2019-01-28T03:02:55.299Z,83.93
2019-01-28T03:05:24.745Z,88.00
2019-01-28T03:07:54.099Z,90.30
2019-01-28T03:10:24.215Z,88.00
2019-01-28T03:12:53.569Z,90.20
2019-01-28T03:15:22.951Z,94.00
2019-01-28T03:17:52.359Z,92.37
2019-01-28T03:20:21.722Z,86.03
2019-01-28T03:22:51.067Z,84.87
2019-01-28T03:25:20.685Z,80.67
2019-01-28T03:27:50.127Z,79.27
2019-01-28T03:30:21.124Z,85.60
2019-01-28T03:32:50.538Z,80.67
2019-01-28T03:35:20.036Z,74.40
2019-01-28T03:37:49.496Z,76.70
2019-01-28T03:40:20.322Z,76.53
2019-01-28T03:42:50.123Z,65.00
2019-01-28T03:45:21.057Z,80.20
2019-01-28T03:47:50.552Z,69.70
2019-01-28T03:50:20.856Z,69.57
2019-01-28T03:52:50.309Z,67.87
2019-01-28T03:55:19.675Z,63.03
2019-01-28T03:57:49.031Z,61.60
2019-01-28T04:00:23.337Z,65.27
2019-01-28T04:02:52.673Z,60.13
2019-01-28T04:05:22.449Z,55.97
2019-01-28T04:07:51.755Z,60.70
2019-01-28T04:10:23.041Z,56.80
2019-01-28T04:12:52.829Z,54.90
2019-01-28T04:15:23.258Z,56.27
2019-01-28T04:17:52.626Z,56.97
2019-01-28T04:20:23.307Z,57.17
2019-01-28T04:22:52.647Z,55.27
2019-01-28T04:25:23.894Z,51.83
2019-01-28T04:27:53.017Z,50.97
2019-01-28T04:30:24.094Z,49.83
2019-01-28T04:32:53.484Z,50.53
2019-01-28T04:35:23.278Z,48.10
2019-01-28T04:37:52.651Z,49.97
2019-01-28T04:40:22.141Z,47.67
2019-01-28T04:42:51.583Z,49.73
2019-01-28T04:45:20.967Z,48.77
2019-01-28T04:47:50.359Z,48.60
2019-01-28T04:50:20.717Z,48.63
2019-01-28T04:52:50.184Z,49.97
2019-01-28T04:55:19.718Z,48.87
2019-01-28T04:57:49.137Z,49.77
2019-01-28T05:00:20.691Z,46.80
2019-01-28T05:02:50.185Z,48.97
2019-01-28T05:05:19.558Z,54.60
2019-01-28T05:07:49.060Z,48.77
2019-01-28T05:10:24.090Z,52.83
2019-01-28T05:12:53.463Z,53.40
2019-01-28T05:15:22.872Z,53.67
2019-01-28T05:17:52.336Z,48.63
2019-01-28T05:20:22.831Z,61.23
2019-01-28T05:22:52.173Z,62.90
2019-01-28T05:25:21.557Z,60.53
2019-01-28T05:27:51.052Z,61.10
2019-01-28T05:30:22.093Z,59.17
2019-01-28T05:32:51.568Z,57.53
2019-01-28T05:35:21.661Z,58.53
2019-01-28T05:37:51.146Z,54.63
2019-01-28T05:40:22.349Z,56.33
2019-01-28T05:42:51.801Z,52.40
2019-01-28T05:45:21.431Z,55.87
2019-01-28T05:47:50.791Z,58.60
2019-01-28T05:50:20.384Z,54.80
2019-01-28T05:52:49.769Z,55.90
2019-01-28T05:55:19.495Z,57.77
2019-01-28T05:57:48.969Z,59.80
2019-01-28T06:00:22.290Z,57.27
2019-01-28T06:02:51.650Z,62.50
2019-01-28T06:05:21.057Z,55.03
2019-01-28T06:07:50.479Z,58.07
2019-01-28T06:10:19.927Z,61.93
2019-01-28T06:12:49.327Z,61.60
2019-01-28T06:15:18.917Z,57.40
2019-01-28T06:17:48.305Z,59.43
2019-01-28T06:20:19.363Z,55.93
2019-01-28T06:22:48.736Z,54.60
2019-01-28T06:25:18.115Z,66.13
2019-01-28T06:27:47.504Z,61.80
2019-01-28T06:30:22.560Z,56.73
2019-01-28T06:32:51.939Z,61.63
2019-01-28T06:35:21.578Z,61.07
2019-01-28T06:37:50.953Z,58.17
2019-01-28T06:40:22.829Z,63.23
2019-01-28T06:42:52.278Z,60.00
2019-01-28T06:45:21.664Z,58.57
2019-01-28T06:47:51.164Z,58.00
2019-01-28T06:50:21.361Z,56.50
2019-01-28T06:52:50.707Z,63.77
2019-01-28T06:55:20.692Z,54.87
2019-01-28T06:57:50.053Z,62.67
2019-01-28T07:00:25.378Z,62.33
2019-01-28T07:02:55.378Z,59.20
2019-01-28T07:05:24.796Z,63.33
2019-01-28T07:07:54.142Z,61.53
2019-01-28T07:10:23.478Z,62.37
2019-01-28T07:12:52.807Z,61.10
2019-01-28T07:15:22.845Z,68.07
2019-01-28T07:17:55.051Z,106.60
2019-01-28T07:20:25.962Z,87.43
2019-01-28T07:22:55.295Z,84.67
2019-01-28T07:25:24.666Z,70.00
2019-01-28T07:27:54.025Z,76.27
2019-01-28T07:30:29.030Z,72.97
2019-01-28T07:32:58.405Z,68.27
2019-01-28T07:35:27.872Z,53.80
2019-01-28T07:37:57.280Z,55.80
2019-01-28T07:40:26.686Z,53.43
2019-01-28T07:42:56.090Z,56.43
2019-01-28T07:45:27.928Z,55.90
2019-01-28T07:48:02.664Z,55.30
2019-01-28T07:50:28.583Z,53.80
2019-01-28T07:52:58.183Z,57.07
2019-01-28T07:55:27.582Z,59.27
2019-01-28T07:57:56.987Z,60.73
2019-01-28T08:00:27.805Z,59.10
2019-01-28T08:02:57.431Z,62.37
2019-01-28T08:05:26.925Z,63.97
2019-01-28T08:07:56.357Z,62.23
2019-01-28T08:10:26.051Z,59.10
2019-01-28T08:12:55.453Z,58.60
2019-01-28T08:15:25.624Z,60.33
2019-01-28T08:17:55.029Z,62.77
2019-01-28T08:20:36.926Z,64.67
2019-01-28T08:23:06.713Z,61.70
2019-01-28T08:25:36.042Z,64.07
2019-01-28T08:28:07.367Z,62.83
2019-01-28T08:30:38.541Z,62.23
2019-01-28T08:33:07.959Z,58.63
2019-01-28T08:35:38.283Z,60.60
2019-01-28T08:38:07.810Z,61.50
2019-01-28T08:40:37.215Z,56.20
2019-01-28T08:43:06.524Z,54.23
2019-01-28T08:45:35.871Z,57.10
2019-01-28T08:48:05.495Z,55.20
2019-01-28T08:50:34.927Z,52.47
2019-01-28T08:53:04.409Z,54.43
2019-01-28T08:55:33.769Z,52.03
2019-01-28T08:58:03.112Z,56.17
2019-01-28T09:00:35.426Z,60.13
2019-01-28T09:03:05.071Z,52.97
2019-01-28T09:05:34.523Z,52.73
2019-01-28T09:08:03.975Z,56.77
2019-01-28T09:10:35.208Z,51.47
2019-01-28T09:13:06.203Z,56.40
2019-01-28T09:15:35.815Z,53.07
2019-01-28T09:18:05.988Z,50.20
2019-01-28T09:20:35.350Z,51.77
2019-01-28T09:23:04.732Z,54.77
2019-01-28T09:25:34.131Z,49.33
2019-01-28T09:28:03.770Z,59.60
2019-01-28T09:30:33.612Z,47.80
2019-01-28T09:33:03.012Z,52.03
2019-01-28T09:35:32.690Z,51.73
2019-01-28T09:38:02.042Z,55.47
2019-01-28T09:40:33.161Z,61.00
2019-01-28T09:43:02.724Z,61.00
2019-01-28T09:45:34.455Z,58.90
2019-01-28T09:48:03.841Z,59.30
2019-01-28T09:50:33.181Z,59.77
2019-01-28T09:53:02.668Z,64.07
2019-01-28T09:55:32.136Z,57.43
2019-01-28T09:58:01.625Z,57.40
2019-01-28T10:00:39.825Z,55.53
2019-01-28T10:03:09.556Z,64.23
2019-01-28T10:05:38.910Z,55.60
2019-01-28T10:08:08.768Z,63.17
2019-01-28T10:10:38.419Z,71.80
2019-01-28T10:13:07.993Z,58.97
2019-01-28T10:15:37.385Z,54.67
2019-01-28T10:18:06.794Z,63.57
2019-01-28T10:20:44.949Z,56.27
2019-01-28T10:23:14.445Z,66.33
2019-01-28T10:25:44.725Z,65.53
2019-01-28T10:28:14.092Z,69.40
2019-01-28T10:30:44.362Z,70.30
2019-01-28T10:33:13.731Z,64.37
2019-01-28T10:35:44.927Z,58.43
2019-01-28T10:38:14.335Z,71.43
2019-01-28T10:40:44.958Z,57.13
2019-01-28T10:43:14.339Z,59.27
2019-01-28T10:45:43.870Z,54.97
2019-01-28T10:48:13.697Z,49.90
2019-01-28T10:50:44.033Z,47.13
2019-01-28T10:53:13.391Z,44.13
2019-01-28T10:55:42.744Z,42.40
2019-01-28T10:58:12.204Z,45.67
2019-01-28T11:00:45.375Z,53.07
2019-01-28T11:03:17.666Z,48.23
2019-01-28T11:05:47.152Z,47.10
2019-01-28T11:08:16.776Z,45.40
2019-01-28T11:10:46.212Z,48.47
2019-01-28T11:13:17.749Z,47.17
2019-01-28T11:15:47.250Z,44.43
2019-01-28T11:18:22.690Z,44.87
2019-01-28T11:20:52.083Z,43.23
2019-01-28T11:23:21.643Z,40.17
2019-01-28T11:25:50.978Z,37.30
2019-01-28T11:28:20.315Z,38.93
2019-01-28T11:30:55.689Z,38.30
2019-01-28T11:33:25.150Z,31.97
2019-01-28T11:35:54.871Z,32.20
2019-01-28T11:38:25.694Z,29.93
2019-01-28T11:40:55.227Z,28.03
2019-01-28T11:43:24.643Z,31.00
2019-01-28T11:46:02.774Z,23.53
2019-01-28T11:48:33.009Z,21.63
2019-01-28T11:51:02.460Z,23.70
2019-01-28T11:53:31.816Z,21.33
2019-01-28T11:56:01.206Z,22.50
2019-01-28T11:58:30.657Z,21.07
2019-01-28T12:01:22.685Z,27.17
2019-01-28T12:03:52.087Z,23.73
2019-01-28T12:06:21.421Z,22.63
2019-01-28T12:08:50.876Z,23.47
2019-01-28T12:11:20.309Z,24.93
2019-01-28T12:13:49.689Z,23.20
2019-01-28T12:16:19.050Z,24.40
2019-01-28T12:18:48.436Z,26.00
2019-01-28T12:21:17.800Z,22.70
2019-01-28T12:23:47.170Z,21.43
2019-01-28T12:26:16.547Z,27.33
2019-01-28T12:28:45.946Z,27.70
2019-01-28T12:31:15.350Z,24.60
2019-01-28T12:33:44.733Z,22.80
2019-01-28T12:36:14.074Z,22.93
2019-01-28T12:38:43.439Z,25.70
2019-01-28T12:41:17.302Z,22.60
2019-01-28T12:43:43.890Z,23.77
2019-01-28T12:46:13.250Z,20.17
2019-01-28T12:48:42.631Z,23.30
2019-01-28T12:51:11.987Z,22.53
2019-01-28T12:53:41.358Z,25.47
2019-01-28T12:56:10.856Z,27.17
2019-01-28T12:58:40.203Z,24.37
2019-01-28T13:01:09.618Z,27.73
2019-01-28T13:03:38.999Z,26.87
2019-01-28T13:06:08.391Z,25.00
2019-01-28T13:08:37.763Z,25.57
2019-01-28T13:11:07.244Z,24.40
2019-01-28T13:13:41.111Z,28.77
2019-01-28T13:16:08.535Z,26.07
2019-01-28T13:18:37.972Z,24.67
2019-01-28T13:21:07.341Z,24.63
2019-01-28T13:23:36.747Z,23.37
2019-01-28T13:26:06.262Z,23.57
2019-01-28T13:28:35.672Z,22.97
2019-01-28T13:31:05.259Z,23.43
2019-01-28T13:33:34.857Z,25.10
2019-01-28T13:36:09.349Z,23.33
2019-01-28T13:38:35.800Z,25.33
2019-01-28T13:41:05.423Z,26.97
2019-01-28T13:43:34.888Z,25.67
2019-01-28T13:46:04.425Z,25.50
2019-01-28T13:48:33.929Z,27.10
2019-01-28T13:51:03.333Z,26.30
2019-01-28T13:53:32.710Z,25.77
2019-01-28T13:56:02.079Z,24.67
2019-01-28T13:58:31.449Z,25.00
2019-01-28T14:01:01.299Z,25.17
2019-01-28T14:03:30.635Z,27.20
2019-01-28T14:06:00.034Z,24.97
2019-01-28T14:08:29.392Z,27.00
2019-01-28T14:10:57.543Z,30.40
2019-01-28T14:13:26.945Z,27.90
2019-01-28T14:15:57.943Z,28.03
2019-01-28T14:18:30.545Z,23.73
2019-01-28T14:21:08.879Z,25.00
2019-01-28T14:23:38.288Z,24.60
2019-01-28T14:26:07.642Z,25.40
2019-01-28T14:28:37.063Z,28.67
2019-01-28T14:31:06.465Z,23.30
2019-01-28T14:33:35.849Z,23.90
2019-01-28T14:36:05.906Z,25.77
2019-01-28T14:38:35.280Z,25.40
2019-01-28T14:41:05.657Z,22.73
2019-01-28T14:43:35.065Z,27.03
2019-01-28T14:46:04.623Z,24.13
2019-01-28T14:48:34.113Z,23.43
2019-01-28T14:51:03.707Z,24.17
2019-01-28T14:53:33.082Z,27.10
2019-01-28T14:56:02.495Z,25.07
2019-01-28T14:58:32.065Z,27.43
2019-01-28T15:01:01.599Z,35.13
2019-01-28T15:03:31.062Z,33.63
2019-01-28T15:06:00.465Z,28.87
2019-01-28T15:08:29.846Z,28.87
2019-01-28T15:10:59.330Z,28.97
2019-01-28T15:13:28.679Z,31.40
2019-01-28T15:15:58.167Z,30.93
2019-01-28T15:18:27.566Z,32.63
2019-01-28T15:20:57.032Z,33.50
2019-01-28T15:23:26.541Z,33.37
2019-01-28T15:25:55.945Z,38.13
2019-01-28T15:28:25.371Z,36.07
2019-01-28T15:30:55.062Z,37.77
2019-01-28T15:33:24.757Z,36.53
2019-01-28T15:35:54.303Z,38.93
2019-01-28T15:38:24.551Z,39.60
2019-01-28T15:40:57.217Z,43.87
2019-01-28T15:43:26.550Z,45.90
2019-01-28T15:45:56.040Z,41.73
2019-01-28T15:48:25.547Z,43.00
2019-01-28T15:50:57.127Z,39.07
2019-01-28T15:53:31.227Z,37.93
2019-01-28T15:56:00.640Z,40.53
2019-01-28T15:58:32.022Z,41.03
2019-01-28T16:01:01.424Z,39.27
2019-01-28T16:03:33.835Z,36.43
2019-01-28T16:06:03.355Z,40.27
2019-01-28T16:08:32.747Z,38.77
2019-01-28T16:11:02.424Z,39.57
2019-01-28T16:13:31.781Z,40.70
2019-01-28T16:16:01.176Z,43.67
2019-01-28T16:18:34.484Z,40.37
2019-01-28T16:21:01.774Z,41.67
2019-01-28T16:23:31.261Z,39.47
2019-01-28T16:26:03.533Z,40.13
2019-01-28T16:28:35.236Z,43.27
2019-01-28T16:31:04.769Z,40.57
2019-01-28T16:33:34.171Z,43.67
2019-01-28T16:36:03.797Z,48.10
2019-01-28T16:38:33.208Z,41.27
2019-01-28T16:41:02.672Z,40.17
2019-01-28T16:43:32.662Z,40.10
2019-01-28T16:46:02.292Z,37.30
2019-01-28T16:48:32.237Z,37.03
2019-01-28T16:51:01.715Z,38.77
2019-01-28T16:53:31.340Z,34.20
2019-01-28T16:56:00.840Z,38.00
2019-01-28T16:58:30.313Z,35.67
2019-01-28T17:00:59.699Z,34.23
2019-01-28T17:03:29.139Z,38.17
2019-01-28T17:05:58.515Z,35.03
2019-01-28T17:08:27.924Z,35.37
2019-01-28T17:10:57.319Z,38.67
2019-01-28T17:13:27.078Z,32.10
2019-01-28T17:15:56.479Z,36.70
2019-01-28T17:18:25.868Z,35.77
2019-01-28T17:20:58.273Z,33.50
2019-01-28T17:23:27.624Z,37.23
2019-01-28T17:25:57.076Z,36.83
2019-01-28T17:28:26.558Z,34.50
2019-01-28T17:30:55.947Z,30.33
2019-01-28T17:33:25.303Z,31.97
2019-01-28T17:35:54.738Z,32.07
2019-01-28T17:38:24.156Z,33.60
2019-01-28T17:40:53.571Z,28.53
2019-01-28T17:43:22.985Z,28.07
2019-01-28T17:45:52.509Z,28.37
2019-01-28T17:48:22.257Z,29.33
2019-01-28T17:50:51.670Z,26.53
2019-01-28T17:53:21.083Z,31.73
2019-01-28T17:55:51.905Z,26.47
2019-01-28T17:58:21.499Z,27.87
2019-01-28T18:00:56.454Z,37.03
2019-01-28T18:03:25.964Z,42.70
2019-01-28T18:05:55.427Z,30.07
2019-01-28T18:08:25.156Z,37.73
2019-01-28T18:10:54.583Z,38.80
2019-01-28T18:13:24.043Z,56.47
2019-01-28T18:15:53.482Z,44.43
2019-01-28T18:18:22.874Z,36.57
2019-01-28T18:20:52.494Z,54.07
2019-01-28T18:23:36.185Z,40.47
2019-01-28T18:26:11.364Z,42.43
2019-01-28T18:28:45.068Z,48.80
2019-01-28T18:31:14.706Z,45.33
2019-01-28T18:33:44.220Z,54.27
2019-01-28T18:36:13.716Z,247.03
2019-01-28T18:38:43.430Z,59.50
2019-01-28T18:41:12.977Z,48.10
2019-01-28T18:43:42.437Z,44.50
2019-01-28T18:46:14.875Z,45.80
2019-01-28T18:48:49.313Z,38.03
2019-01-28T18:51:26.008Z,41.67
2019-01-28T18:54:01.630Z,39.50
2019-01-28T18:56:32.348Z,46.90
2019-01-28T18:59:02.031Z,46.90
2019-01-28T19:01:37.021Z,40.70
2019-01-28T19:04:10.824Z,41.20
2019-01-28T19:07:09.501Z,37.50
2019-01-28T19:09:57.434Z,38.13
2019-01-28T19:12:47.068Z,46.50
2019-01-28T19:15:33.125Z,50.83
2019-01-28T19:18:21.447Z,48.10
2019-01-28T19:20:58.513Z,64.57
2019-01-28T19:23:37.278Z,64.13
2019-01-28T19:26:06.973Z,71.33
2019-01-28T19:28:36.824Z,68.13
2019-01-28T19:31:06.442Z,65.10
2019-01-28T19:33:35.836Z,62.33
2019-01-28T19:36:05.436Z,66.93
2019-01-28T19:38:45.504Z,69.53
2019-01-28T19:41:14.911Z,65.97
2019-01-28T19:43:44.381Z,58.87
2019-01-28T19:46:14.459Z,69.27
2019-01-28T19:48:43.944Z,65.27
2019-01-28T19:51:18.038Z,60.47
2019-01-28T19:53:47.468Z,67.17
2019-01-28T19:56:16.869Z,67.60
2019-01-28T19:58:46.299Z,58.80
2019-01-28T20:01:15.771Z,56.37
2019-01-28T20:03:47.352Z,60.57
2019-01-28T20:06:16.988Z,63.27
2019-01-28T20:08:48.368Z,55.20
2019-01-28T20:11:20.611Z,60.47
2019-01-28T20:13:51.608Z,55.67
2019-01-28T20:16:22.906Z,58.87
2019-01-28T20:18:52.371Z,53.70
2019-01-28T20:21:23.847Z,54.20
2019-01-28T20:23:53.246Z,60.27
2019-01-28T20:26:22.636Z,54.30
2019-01-28T20:28:52.046Z,55.20
2019-01-28T20:31:21.502Z,56.13
2019-01-28T20:33:50.946Z,51.77
2019-01-28T20:36:24.551Z,54.87
2019-01-28T20:38:54.150Z,52.97
2019-01-28T20:41:30.826Z,53.80
2019-01-28T20:46:39.506Z,52.67
2019-01-28T20:49:19.549Z,55.43
2019-01-28T20:51:56.758Z,48.10
2019-01-28T20:54:26.516Z,47.23
2019-01-28T20:56:57.484Z,50.93
2019-01-28T20:59:26.991Z,46.30
2019-01-28T21:01:56.382Z,45.67
2019-01-28T21:04:25.833Z,48.43
2019-01-28T21:06:55.430Z,48.97
2019-01-28T21:09:24.914Z,51.40
2019-01-28T21:11:54.295Z,48.20
2019-01-28T21:14:27.044Z,45.47
2019-01-28T21:16:56.461Z,45.07
2019-01-28T21:19:25.990Z,49.77
2019-01-28T21:21:55.415Z,45.13
2019-01-28T21:24:27.003Z,45.63
2019-01-28T21:26:56.376Z,44.67
2019-01-28T21:29:25.763Z,47.43
2019-01-28T21:31:55.333Z,46.33
2019-01-28T21:34:24.729Z,49.30
2019-01-28T21:37:03.591Z,52.60
2019-01-28T21:39:32.979Z,48.60
2019-01-28T21:42:02.471Z,48.50
2019-01-28T21:44:31.876Z,48.13
2019-01-28T21:47:01.403Z,47.47
2019-01-28T21:49:30.777Z,45.73
2019-01-28T21:52:00.248Z,50.10
2019-01-28T21:54:29.617Z,49.67
2019-01-28T21:56:59.073Z,47.07
2019-01-28T21:59:28.588Z,48.87
2019-01-28T22:01:57.949Z,55.30
2019-01-28T22:04:27.327Z,41.40
2019-01-28T22:06:56.710Z,47.27
2019-01-28T22:09:26.291Z,45.83
2019-01-28T22:11:56.030Z,42.90
2019-01-28T22:14:25.493Z,45.23
2019-01-28T22:16:55.050Z,43.63
2019-01-28T22:19:24.616Z,49.93
2019-01-28T22:21:59.076Z,46.63
2019-01-28T22:24:25.231Z,45.93
2019-01-28T22:26:54.645Z,47.67
2019-01-28T22:29:24.047Z,43.37
2019-01-28T22:31:53.502Z,44.73
2019-01-28T22:34:22.860Z,42.03
2019-01-28T22:36:52.252Z,40.07
2019-01-28T22:39:21.665Z,42.43
2019-01-28T22:41:51.063Z,43.43
2019-01-28T22:44:20.479Z,40.87
2019-01-28T22:46:49.931Z,40.53
2019-01-28T22:49:19.338Z,38.70
2019-01-28T22:51:48.859Z,39.70
2019-01-28T22:54:18.352Z,40.40
2019-01-28T22:56:47.746Z,39.63
2019-01-28T22:59:17.168Z,34.13
2019-01-28T23:01:46.658Z,34.00
2019-01-28T23:04:16.109Z,34.97
2019-01-28T23:06:45.481Z,32.67
2019-01-28T23:09:14.872Z,35.17
2019-01-28T23:11:44.274Z,38.67
2019-01-28T23:14:13.711Z,36.00
2019-01-28T23:16:43.086Z,38.37
2019-01-28T23:19:12.468Z,37.43
2019-01-28T23:21:41.869Z,34.53
2019-01-28T23:24:11.268Z,36.87
2019-01-28T23:26:40.807Z,35.73
2019-01-28T23:29:10.202Z,33.57
2019-01-28T23:31:39.587Z,38.53
2019-01-28T23:34:08.965Z,37.40
2019-01-28T23:36:38.768Z,32.87
2019-01-28T23:39:09.306Z,36.87
2019-01-28T23:41:38.773Z,33.77
2019-01-28T23:44:08.161Z,33.80
2019-01-28T23:46:37.548Z,34.20
2019-01-28T23:49:06.944Z,34.83
2019-01-28T23:51:36.318Z,33.73
2019-01-28T23:54:05.877Z,34.47
2019-01-28T23:56:35.253Z,31.67
2019-01-28T23:59:04.930Z,31.13
